Time;durP1;ratioP1;P1;durP2;ratioP2;P2;SDS_P1;SDS_P2;PMS_P1;PMS_P2;Temp;Humidity;BMP_temperature;BMP_pressure;BME280_temperature;BME280_humidity;BME280_pressure;Samples;Min_cycle;Max_cycle;Signal;HPM_P1;HPM_P2
2023/01/08 07:00:51;;;;;;;;;0.00;0.00;;;;;-147.14;100.00;58812.66;6182430;22;46503;-63
2023/01/08 07:03:16;;;;;;;;;0.00;0.00;;;;;-147.14;100.00;58812.66;6245276;22;45316;-62
2023/01/08 07:05:42;;;;;;;;;0.00;0.00;;;;;-147.14;100.00;58812.66;6247472;22;45400;-62
2023/01/08 07:08:14;;;;;;;;;0.00;0.00;;;;;-147.14;100.00;58812.66;6246742;22;45215;-61
2023/01/08 07:10:41;;;;;;;;;0.00;0.00;;;;;-147.14;100.00;58812.66;6246715;22;45321;-61
2023/01/08 07:13:09;;;;;;;;;0.00;0.00;;;;;-147.14;100.00;58812.66;6245016;22;45616;-61
2023/01/08 07:15:41;;;;;;;;;0.00;0.00;;;;;-147.14;100.00;58812.66;6245657;22;45355;-61
2023/01/08 07:18:10;;;;;;;;;0.00;0.00;;;;;-147.14;100.00;58812.66;6246682;22;45265;-61
2023/01/08 07:20:36;;;;;;;;;0.00;0.00;;;;;-147.14;100.00;58812.66;6246778;22;45223;-61
2023/01/08 07:23:03;;;;;;;;;0.00;0.00;;;;;-147.14;100.00;58812.66;6246146;22;45516;-61
2023/01/08 07:25:29;;;;;;;;;0.67;0.67;;;;;-147.14;100.00;58812.66;6220469;22;45290;-62
2023/01/08 07:27:55;;;;;;;;;0.00;0.00;;;;;-147.14;100.00;58812.66;6246792;22;45278;-61
2023/01/08 07:30:20;;;;;;;;;0.00;0.00;;;;;-147.14;100.00;58812.66;6247778;22;45102;-61
2023/01/08 07:32:46;;;;;;;;;1.00;1.00;;;;;-147.14;100.00;58812.66;6247474;22;45366;-61
2023/01/08 07:35:11;;;;;;;;;0.00;0.00;;;;;-147.14;100.00;58812.66;6245394;22;65957;-61
2023/01/08 07:37:40;;;;;;;;;0.67;0.67;;;;;-147.14;100.00;58812.66;6246637;22;64087;-61
2023/01/08 07:40:07;;;;;;;;;1.00;1.00;;;;;-147.14;100.00;58812.66;6247019;22;45375;-61
2023/01/08 07:42:33;;;;;;;;;2.33;2.00;;;;;-147.14;100.00;58812.66;6246802;22;45209;-61
2023/01/08 07:44:58;;;;;;;;;4.00;1.00;;;;;-147.14;100.00;58812.66;6246011;22;64987;-61
2023/01/08 07:47:23;;;;;;;;;0.00;0.00;;;;;-147.14;100.00;58812.66;6246411;22;61885;-62
2023/01/08 07:49:49;;;;;;;;;3.67;3.67;;;;;-147.14;100.00;58812.66;6246540;22;58872;-61
2023/01/08 07:52:14;;;;;;;;;2.00;0.67;;;;;-147.14;100.00;58812.66;6245340;22;45222;-61
2023/01/08 07:54:40;;;;;;;;;0.33;0.00;;;;;-147.14;100.00;58812.66;6246525;22;45969;-61
2023/01/08 07:57:05;;;;;;;;;0.00;0.00;;;;;-147.14;100.00;58812.66;6245898;22;45233;-61
2023/01/08 07:59:30;;;;;;;;;0.00;0.00;;;;;-147.14;100.00;58812.66;6247293;22;45792;-60
2023/01/08 08:01:56;;;;;;;;;0.00;0.00;;;;;-147.14;100.00;58812.66;6245846;22;45395;-61
2023/01/08 08:04:21;;;;;;;;;0.00;0.00;;;;;-147.14;100.00;58812.66;6246372;22;61369;-61
2023/01/08 08:06:46;;;;;;;;;0.67;0.00;;;;;-147.14;100.00;58812.66;6219521;22;45336;-62
2023/01/08 08:09:12;;;;;;;;;0.67;0.67;;;;;-147.14;100.00;58812.66;6246045;22;45425;-61
2023/01/08 08:11:37;;;;;;;;;0.00;0.00;;;;;-147.14;100.00;58812.66;6244909;22;48291;-62
2023/01/08 08:14:03;;;;;;;;;2.67;0.00;;;;;-147.14;100.00;58812.66;6243801;22;46608;-62
2023/01/08 08:16:29;;;;;;;;;0.33;0.00;;;;;-147.14;100.00;58812.66;6246963;22;45304;-62
2023/01/08 08:18:57;;;;;;;;;1.00;1.00;;;;;-147.14;100.00;58812.66;6246606;22;45590;-62
2023/01/08 08:21:22;;;;;;;;;1.00;0.00;;;;;-147.14;100.00;58812.66;6246892;22;45173;-62
2023/01/08 08:23:47;;;;;;;;;1.33;1.00;;;;;-147.14;100.00;58812.66;6246912;22;45842;-62
2023/01/08 08:26:13;;;;;;;;;0.00;0.00;;;;;-147.14;100.00;58812.66;6244770;22;64197;-62
2023/01/08 08:28:38;;;;;;;;;1.00;1.00;;;;;-147.14;100.00;58812.66;6246718;22;57684;-61
2023/01/08 08:31:04;;;;;;;;;2.00;1.00;;;;;-147.14;100.00;58812.66;6246073;22;45371;-62
2023/01/08 08:33:29;;;;;;;;;1.00;1.00;;;;;-147.14;100.00;58812.66;6246758;22;46214;-62
2023/01/08 08:35:54;;;;;;;;;1.67;0.00;;;;;-147.14;100.00;58812.66;6246056;22;52274;-62
2023/01/08 08:38:20;;;;;;;;;1.67;0.33;;;;;-147.14;100.00;58812.66;6246692;22;58449;-62
2023/01/08 08:40:45;;;;;;;;;1.00;1.00;;;;;-147.14;100.00;58812.66;6246028;22;45225;-62
2023/01/08 08:43:10;;;;;;;;;2.00;0.67;;;;;-147.14;100.00;58812.66;6245425;22;65121;-62
2023/01/08 08:45:36;;;;;;;;;0.33;0.33;;;;;-147.14;100.00;58812.66;6246151;22;45488;-62
2023/01/08 08:48:04;;;;;;;;;2.00;1.00;;;;;-147.14;100.00;58812.66;6246506;22;45244;-62
2023/01/08 08:50:30;;;;;;;;;2.00;1.00;;;;;-147.14;100.00;58812.66;6246704;22;45646;-61
2023/01/08 08:52:59;;;;;;;;;1.33;1.33;;;;;-147.14;100.00;58812.66;6245271;22;63933;-62
2023/01/08 08:55:25;;;;;;;;;2.00;1.00;;;;;-147.14;100.00;58812.66;6246892;22;45186;-61
2023/01/08 08:57:50;;;;;;;;;2.33;1.00;;;;;-147.14;100.00;58812.66;6245694;22;45263;-61
2023/01/08 09:00:16;;;;;;;;;3.00;1.00;;;;;-147.14;100.00;58812.66;6246059;22;45496;-61
2023/01/08 09:02:41;;;;;;;;;1.00;1.00;;;;;-147.14;100.00;58812.66;6247374;22;46297;-61
2023/01/08 09:05:07;;;;;;;;;1.00;1.00;;;;;-147.14;100.00;58812.66;6246139;22;45280;-61
2023/01/08 09:07:32;;;;;;;;;0.00;0.00;;;;;-147.14;100.00;58812.66;6247215;22;45235;-62
2023/01/08 09:09:58;;;;;;;;;1.67;1.00;;;;;-147.14;100.00;58812.66;6219758;22;45421;-62
2023/01/08 09:12:23;;;;;;;;;1.00;1.00;;;;;-147.14;100.00;58812.66;6245746;22;63437;-62
2023/01/08 09:14:53;;;;;;;;;2.00;0.00;;;;;-147.14;100.00;58812.66;6245221;22;62637;-62
2023/01/08 09:17:20;;;;;;;;;0.00;0.00;;;;;-147.14;100.00;58812.66;6246114;22;45217;-62
2023/01/08 09:19:45;;;;;;;;;1.33;0.00;;;;;-147.14;100.00;58812.66;6246238;22;45360;-61
2023/01/08 09:22:11;;;;;;;;;3.00;0.00;;;;;-147.14;100.00;58812.66;6246506;22;46150;-60
2023/01/08 09:24:36;;;;;;;;;0.00;0.00;;;;;-147.14;100.00;58812.66;6246244;22;64988;-60
2023/01/08 09:27:01;;;;;;;;;2.00;1.00;;;;;-147.14;100.00;58812.66;6246570;22;45269;-61
2023/01/08 09:29:27;;;;;;;;;2.33;1.00;;;;;-147.14;100.00;58812.66;6246944;22;45197;-61
2023/01/08 09:31:52;;;;;;;;;0.67;0.67;;;;;-147.14;100.00;58812.66;6245703;22;46023;-61
2023/01/08 09:34:17;;;;;;;;;2.00;0.33;;;;;-147.14;100.00;58812.66;6246144;22;45598;-61
2023/01/08 09:36:43;;;;;;;;;1.33;1.00;;;;;-147.14;100.00;58812.66;6245266;22;59371;-62
2023/01/08 09:39:09;;;;;;;;;0.00;0.00;;;;;-147.14;100.00;58812.66;6246279;22;57396;-62
2023/01/08 09:41:45;;;;;;;;;1.00;0.00;;;;;-147.14;100.00;58812.66;6246309;22;46154;-62
2023/01/08 09:44:15;;;;;;;;;0.00;0.00;;;;;-147.14;100.00;58812.66;6246521;22;45185;-62
2023/01/08 09:46:40;;;;;;;;;2.33;0.67;;;;;-147.14;100.00;58812.66;6219301;22;45352;-62
2023/01/08 09:49:11;;;;;;;;;0.67;0.67;;;;;-147.14;100.00;58812.66;6217742;22;61548;-61
2023/01/08 09:51:37;;;;;;;;;3.00;0.00;;;;;-147.14;100.00;58812.66;6219351;22;45985;-61
2023/01/08 09:54:04;;;;;;;;;0.67;0.67;;;;;-147.14;100.00;58812.66;6246078;22;45169;-62
2023/01/08 09:56:32;;;;;;;;;0.33;0.00;;;;;-147.14;100.00;58812.66;6246274;22;45442;-61
2023/01/08 09:59:00;;;;;;;;;1.33;1.00;;;;;-147.14;100.00;58812.66;6246661;22;45227;-62
2023/01/08 10:01:28;;;;;;;;;0.00;0.00;;;;;-147.14;100.00;58812.66;6207146;22;45385;-62
2023/01/08 10:04:06;;;;;;;;;1.00;1.00;;;;;-147.14;100.00;58812.66;6218084;22;45285;-61
2023/01/08 10:06:32;;;;;;;;;0.00;0.00;;;;;-147.14;100.00;58812.66;6246152;22;45275;-61
2023/01/08 10:08:57;;;;;;;;;0.00;0.00;;;;;-147.14;100.00;58812.66;6245982;22;45487;-62
2023/01/08 10:11:25;;;;;;;;;1.67;0.00;;;;;-147.14;100.00;58812.66;6218825;22;46491;-62
2023/01/08 10:13:55;;;;;;;;;1.67;1.00;;;;;-147.14;100.00;58812.66;6219401;22;45315;-63
2023/01/08 10:16:30;;;;;;;;;1.00;1.00;;;;;-147.14;100.00;58812.66;6218368;22;45329;-62
2023/01/08 10:18:57;;;;;;;;;0.33;0.33;;;;;-147.14;100.00;58812.66;6217523;22;45228;-62
2023/01/08 10:21:29;;;;;;;;;2.00;0.67;;;;;-147.14;100.00;58812.66;6242915;22;45351;-62
2023/01/08 10:23:55;;;;;;;;;1.00;1.00;;;;;-147.14;100.00;58812.66;6245525;22;45292;-62
2023/01/08 10:26:32;;;;;;;;;2.67;0.00;;;;;-147.14;100.00;58812.66;6244513;22;56848;-62
2023/01/08 10:29:15;;;;;;;;;0.00;0.00;;;;;-147.14;100.00;58812.66;6218311;22;45293;-62
2023/01/08 10:31:46;;;;;;;;;5.33;1.33;;;;;-147.14;100.00;58812.66;6244438;22;46884;-62
2023/01/08 10:34:20;;;;;;;;;0.67;0.00;;;;;-147.14;100.00;58812.66;6244611;22;45500;-62
2023/01/08 10:36:45;;;;;;;;;4.00;0.33;;;;;-147.14;100.00;58812.66;6216606;22;45344;-68
2023/01/08 10:39:24;;;;;;;;;1.00;1.00;;;;;-147.14;100.00;58812.66;6218160;22;45328;-68
2023/01/08 10:41:52;;;;;;;;;0.33;0.33;;;;;-147.14;100.00;58812.66;6243172;22;46874;-68
2023/01/08 10:44:19;;;;;;;;;0.33;0.33;;;;;-147.14;100.00;58812.66;6217943;22;45348;-67
2023/01/08 10:46:48;;;;;;;;;2.00;1.00;;;;;-147.14;100.00;58812.66;6245423;22;60877;-69
2023/01/08 10:49:28;;;;;;;;;1.00;1.00;;;;;-147.14;100.00;58812.66;6218367;22;45580;-69
2023/01/08 10:51:54;;;;;;;;;0.67;0.67;;;;;-147.14;100.00;58812.66;6245991;22;45292;-69
2023/01/08 10:54:34;;;;;;;;;0.00;0.00;;;;;-147.14;100.00;58812.66;6245361;22;45301;-67
2023/01/08 10:57:00;;;;;;;;;3.00;2.00;;;;;-147.14;100.00;58812.66;6218070;22;45229;-68
2023/01/08 10:59:25;;;;;;;;;2.00;0.33;;;;;-147.14;100.00;58812.66;6245457;22;45342;-68
2023/01/08 11:01:54;;;;;;;;;1.33;1.00;;;;;-147.14;100.00;58812.66;6245330;22;45230;-68
2023/01/08 11:04:28;;;;;;;;;3.67;1.00;;;;;-147.14;100.00;58812.66;6218421;22;45301;-68
2023/01/08 11:06:58;;;;;;;;;3.33;1.00;;;;;-147.14;100.00;58812.66;6218758;22;45360;-68
2023/01/08 11:09:27;;;;;;;;;1.00;1.00;;;;;-147.14;100.00;58812.66;6243931;22;45381;-67
2023/01/08 11:11:53;;;;;;;;;2.00;1.00;;;;;-147.14;100.00;58812.66;6217008;22;46086;-67
2023/01/08 11:14:23;;;;;;;;;0.67;0.67;;;;;-147.14;100.00;58812.66;6217107;22;45283;-67
2023/01/08 11:16:48;;;;;;;;;1.00;1.00;;;;;-147.14;100.00;58812.66;6218578;22;45271;-67
2023/01/08 11:19:17;;;;;;;;;2.00;1.00;;;;;-147.14;100.00;58812.66;6242742;22;45635;-67
2023/01/08 11:21:54;;;;;;;;;6.33;1.00;;;;;-147.14;100.00;58812.66;6218664;22;45431;-68
2023/01/08 11:24:27;;;;;;;;;3.00;2.00;;;;;-147.14;100.00;58812.66;6246227;22;45468;-68
2023/01/08 11:27:00;;;;;;;;;1.00;1.00;;;;;-147.14;100.00;58812.66;6245320;22;45286;-67
2023/01/08 11:29:51;;;;;;;;;2.00;1.00;;;;;-147.14;100.00;58812.66;6218127;22;45486;-67
2023/01/08 11:32:25;;;;;;;;;3.00;1.00;;;;;-147.14;100.00;58812.66;6245978;22;45487;-67
2023/01/08 11:35:06;;;;;;;;;4.67;1.67;;;;;-147.14;100.00;58812.66;6193066;22;45311;-67
2023/01/08 11:37:35;;;;;;;;;2.33;2.33;;;;;-147.14;100.00;58812.66;6244346;22;45416;-67
2023/01/08 11:40:00;;;;;;;;;2.33;2.00;;;;;-147.14;100.00;58812.66;6193992;22;45296;-67
2023/01/08 11:43:06;;;;;;;;;2.33;0.00;;;;;-147.14;100.00;58812.66;6220082;22;46229;-67
2023/01/08 11:46:09;;;;;;;;;1.00;0.67;;;;;-147.14;100.00;58812.66;6187588;22;45411;-67
2023/01/08 11:49:05;;;;;;;;;2.67;0.67;;;;;-147.14;100.00;58812.66;6245122;22;45315;-67
2023/01/08 11:51:55;;;;;;;;;1.33;1.33;;;;;-147.14;100.00;58812.66;6246875;22;45222;-65
2023/01/08 11:54:26;;;;;;;;;0.00;0.00;;;;;-147.14;100.00;58812.66;6247024;22;45249;-67
2023/01/08 11:57:15;;;;;;;;;3.00;2.00;;;;;-147.14;100.00;58812.66;6246286;22;45317;-64
2023/01/08 12:00:22;;;;;;;;;1.67;1.67;;;;;-147.14;100.00;58812.66;6247732;22;45427;-66
2023/01/08 12:02:56;;;;;;;;;1.33;0.67;;;;;-147.14;100.00;58812.66;6182835;23;45338;-67
2023/01/08 12:05:36;;;;;;;;;0.67;0.67;;;;;-147.14;100.00;58812.66;6156736;23;46627;-65
2023/01/08 12:08:26;;;;;;;;;1.33;1.33;;;;;-147.14;100.00;58812.66;6195841;22;45644;-65
2023/01/08 12:11:09;;;;;;;;;2.33;2.33;;;;;-147.14;100.00;58812.66;6243003;22;45438;-64
2023/01/08 12:13:44;;;;;;;;;2.67;1.67;;;;;-147.14;100.00;58812.66;6244808;22;45316;-66
2023/01/08 12:16:32;;;;;;;;;4.00;1.00;;;;;-147.14;100.00;58812.66;6246450;22;45565;-65
2023/01/08 12:19:14;;;;;;;;;2.67;1.00;;;;;-147.14;100.00;58812.66;6237619;22;45751;-65
2023/01/08 12:22:02;;;;;;;;;1.00;1.00;;;;;-147.14;100.00;58812.66;6244221;22;45272;-65
2023/01/08 12:24:54;;;;;;;;;3.67;0.33;;;;;-147.14;100.00;58812.66;6218828;22;45260;-64
2023/01/08 12:27:46;;;;;;;;;1.00;1.00;;;;;-147.14;100.00;58812.66;6244441;22;45272;-64
2023/01/08 12:30:17;;;;;;;;;1.33;1.33;;;;;-147.14;100.00;58812.66;6244934;22;45265;-64
2023/01/08 12:32:50;;;;;;;;;2.00;1.00;;;;;-147.14;100.00;58812.66;6245233;22;45304;-64
2023/01/08 12:35:23;;;;;;;;;1.00;1.00;;;;;-147.14;100.00;58812.66;6217945;22;45385;-66
2023/01/08 12:38:00;;;;;;;;;0.00;0.00;;;;;-147.14;100.00;58812.66;6245786;22;45322;-64
2023/01/08 12:40:31;;;;;;;;;1.33;1.33;;;;;-147.14;100.00;58812.66;6246095;22;45313;-64
2023/01/08 12:42:57;;;;;;;;;6.67;1.33;;;;;-147.14;100.00;58812.66;6218407;22;45297;-64
2023/01/08 12:45:28;;;;;;;;;1.00;1.00;;;;;-147.14;100.00;58812.66;6245995;22;45387;-65
2023/01/08 12:47:57;;;;;;;;;1.00;1.00;;;;;-147.14;100.00;58812.66;6245201;22;46300;-66
2023/01/08 12:50:41;;;;;;;;;1.00;1.00;;;;;-147.14;100.00;58812.66;6242966;22;45312;-67
2023/01/08 12:53:20;;;;;;;;;0.33;0.00;;;;;-147.14;100.00;58812.66;6246073;22;45220;-67
2023/01/08 12:56:01;;;;;;;;;1.00;1.00;;;;;-147.14;100.00;58812.66;6192842;22;45230;-67
2023/01/08 12:58:38;;;;;;;;;4.33;1.00;;;;;-147.14;100.00;58812.66;6246574;22;46076;-66
2023/01/08 13:01:20;;;;;;;;;1.00;1.00;;;;;-147.14;100.00;58812.66;6245640;22;45299;-67
2023/01/08 13:03:46;;;;;;;;;2.33;0.00;;;;;-147.14;100.00;58812.66;6219050;22;45252;-66
2023/01/08 13:06:17;;;;;;;;;3.00;1.00;;;;;-147.14;100.00;58812.66;6244724;22;60993;-67
2023/01/08 13:08:51;;;;;;;;;1.67;1.00;;;;;-147.14;100.00;58812.66;6246613;22;47116;-66
2023/01/08 13:11:31;;;;;;;;;1.00;1.00;;;;;-147.14;100.00;58812.66;6218883;22;45412;-66
2023/01/08 13:14:02;;;;;;;;;2.00;0.67;;;;;-147.14;100.00;58812.66;6245729;22;45230;-66
2023/01/08 13:16:28;;;;;;;;;3.33;1.00;;;;;-147.14;100.00;58812.66;6218957;22;45423;-66
2023/01/08 13:18:54;;;;;;;;;2.00;1.00;;;;;-147.14;100.00;58812.66;6245264;22;45289;-66
2023/01/08 13:21:33;;;;;;;;;0.00;0.00;;;;;-147.14;100.00;58812.66;6246279;22;45603;-66
2023/01/08 13:24:28;;;;;;;;;1.00;1.00;;;;;-147.14;100.00;58812.66;6245869;22;45194;-66
2023/01/08 13:26:54;;;;;;;;;1.00;1.00;;;;;-147.14;100.00;58812.66;6229951;22;45420;-66
2023/01/08 13:29:24;;;;;;;;;1.00;1.00;;;;;-147.14;100.00;58812.66;6218812;22;46157;-66
2023/01/08 13:31:50;;;;;;;;;1.00;1.00;;;;;-147.14;100.00;58812.66;6246531;22;45344;-66
2023/01/08 13:34:41;;;;;;;;;1.00;1.00;;;;;-147.14;100.00;58812.66;6246215;22;45317;-66
2023/01/08 13:37:07;;;;;;;;;0.00;0.00;;;;;-147.14;100.00;58812.66;6218657;22;46020;-66
2023/01/08 13:39:41;;;;;;;;;3.00;1.67;;;;;-147.14;100.00;58812.66;6216271;22;46008;-67
2023/01/08 13:42:09;;;;;;;;;2.00;1.00;;;;;-147.14;100.00;58812.66;6241227;22;45358;-67
2023/01/08 13:44:41;;;;;;;;;2.00;1.33;;;;;-147.14;100.00;58812.66;6241156;22;45477;-68
2023/01/08 13:47:26;;;;;;;;;3.33;3.00;;;;;-147.14;100.00;58812.66;6217208;22;45455;-66
2023/01/08 13:49:52;;;;;;;;;0.33;0.33;;;;;-147.14;100.00;58812.66;6243251;22;45414;-67
2023/01/08 13:52:43;;;;;;;;;1.33;1.00;;;;;-147.14;100.00;58812.66;6216974;22;67104;-67
2023/01/08 13:55:37;;;;;;;;;1.33;1.00;;;;;-147.14;100.00;58812.66;6244761;22;45363;-67
2023/01/08 13:58:07;;;;;;;;;1.67;1.33;;;;;-147.14;100.00;58812.66;6215985;22;45225;-67
2023/01/08 14:00:41;;;;;;;;;2.00;1.00;;;;;-147.14;100.00;58812.66;6243986;22;46226;-67
2023/01/08 14:03:36;;;;;;;;;0.00;0.00;;;;;-147.14;100.00;58812.66;6241054;22;45284;-66
2023/01/08 14:06:20;;;;;;;;;2.00;2.00;;;;;-147.14;100.00;58812.66;6243884;22;45355;-67
2023/01/08 14:08:51;;;;;;;;;4.00;3.00;;;;;-147.14;100.00;58812.66;6245624;22;45477;-66
2023/01/08 14:11:18;;;;;;;;;2.67;2.67;;;;;-147.14;100.00;58812.66;6244315;22;46040;-68
2023/01/08 14:13:44;;;;;;;;;5.67;1.33;;;;;-147.14;100.00;58812.66;6217940;22;45296;-67
2023/01/08 14:16:13;;;;;;;;;2.00;2.00;;;;;-147.14;100.00;58812.66;6217407;22;45593;-67
2023/01/08 14:18:42;;;;;;;;;1.67;1.00;;;;;-147.14;100.00;58812.66;6217862;22;45316;-67
2023/01/08 14:21:08;;;;;;;;;1.00;1.00;;;;;-147.14;100.00;58812.66;6241566;22;46429;-67
2023/01/08 14:23:38;;;;;;;;;2.00;1.00;;;;;-147.14;100.00;58812.66;6244766;22;59612;-67
2023/01/08 14:26:07;;;;;;;;;4.00;4.00;;;;;-147.14;100.00;58812.66;6244118;22;45348;-66
2023/01/08 14:28:32;;;;;;;;;2.67;1.00;;;;;-147.14;100.00;58812.66;6217443;22;45418;-66
2023/01/08 14:30:58;;;;;;;;;1.00;1.00;;;;;-147.14;100.00;58812.66;6245088;22;46049;-67
2023/01/08 14:33:28;;;;;;;;;3.00;0.67;;;;;-147.14;100.00;58812.66;6240000;22;45309;-69
2023/01/08 14:35:54;;;;;;;;;3.00;1.00;;;;;-147.14;100.00;58812.66;6244809;22;45346;-67
2023/01/08 14:38:19;;;;;;;;;2.33;1.00;;;;;-147.14;100.00;58812.66;6245755;22;45269;-67
2023/01/08 14:40:50;;;;;;;;;4.00;3.00;;;;;-147.14;100.00;58812.66;6215669;22;67906;-67
2023/01/08 14:43:17;;;;;;;;;1.00;1.00;;;;;-147.14;100.00;58812.66;6244166;22;45170;-68
2023/01/08 14:45:48;;;;;;;;;0.00;0.00;;;;;-147.14;100.00;58812.66;6245341;22;45342;-68
2023/01/08 14:48:13;;;;;;;;;1.00;0.00;;;;;-147.14;100.00;58812.66;6244803;22;45228;-65
2023/01/08 14:50:41;;;;;;;;;1.00;1.00;;;;;-147.14;100.00;58812.66;6242631;22;45273;-65
2023/01/08 14:53:13;;;;;;;;;6.33;2.00;;;;;-147.14;100.00;58812.66;6216794;22;45780;-64
2023/01/08 14:55:42;;;;;;;;;2.00;2.00;;;;;-147.14;100.00;58812.66;6243761;22;45225;-66
2023/01/08 14:58:17;;;;;;;;;1.33;1.33;;;;;-147.14;100.00;58812.66;6244413;22;45563;-65
2023/01/08 15:00:47;;;;;;;;;7.00;4.33;;;;;-147.14;100.00;58812.66;6216254;22;45528;-66
2023/01/08 15:03:42;;;;;;;;;3.67;2.00;;;;;-147.14;100.00;58812.66;6242157;22;45427;-66
2023/01/08 15:06:12;;;;;;;;;4.67;3.00;;;;;-147.14;100.00;58812.66;6210180;22;45297;-63
2023/01/08 15:08:42;;;;;;;;;5.33;1.67;;;;;-147.14;100.00;58812.66;6218149;22;45399;-66
2023/01/08 15:11:14;;;;;;;;;1.00;1.00;;;;;-147.14;100.00;58812.66;6242292;22;46293;-64
2023/01/08 15:13:40;;;;;;;;;6.00;3.00;;;;;-147.14;100.00;58812.66;6245722;22;45197;-64
2023/01/08 15:16:28;;;;;;;;;3.00;1.67;;;;;-147.14;100.00;58812.66;6245657;22;45308;-64
2023/01/08 15:19:10;;;;;;;;;3.33;2.67;;;;;-147.14;100.00;58812.66;6245193;22;45299;-63
2023/01/08 15:21:36;;;;;;;;;3.00;2.33;;;;;-147.14;100.00;58812.66;6245781;22;45351;-63
2023/01/08 15:24:03;;;;;;;;;2.33;2.00;;;;;-147.14;100.00;58812.66;6245217;22;45423;-64
2023/01/08 15:26:28;;;;;;;;;3.00;2.00;;;;;-147.14;100.00;58812.66;6219369;22;45293;-66
2023/01/08 15:28:59;;;;;;;;;6.67;3.67;;;;;-147.14;100.00;58812.66;6246010;22;45445;-64
2023/01/08 15:31:32;;;;;;;;;2.00;2.00;;;;;-147.14;100.00;58812.66;6245580;22;46142;-64
2023/01/08 15:33:59;;;;;;;;;2.67;1.33;;;;;-147.14;100.00;58812.66;6242387;22;45268;-64
2023/01/08 15:36:24;;;;;;;;;4.33;1.67;;;;;-147.14;100.00;58812.66;6243354;22;45597;-64
2023/01/08 15:38:51;;;;;;;;;3.00;1.67;;;;;-147.14;100.00;58812.66;6246160;22;45336;-64
2023/01/08 15:43:08;;;;;;;;;3.00;2.00;;;;;-147.14;100.00;58812.66;6244956;22;45999;-64
2023/01/08 15:44:03;;;;;;;;;2.00;2.00;;;;;-147.14;100.00;58812.66;6244380;22;45360;-64
2023/01/08 15:46:29;;;;;;;;;2.67;2.67;;;;;-147.14;100.00;58812.66;6244857;22;45538;-64
2023/01/08 15:48:55;;;;;;;;;2.00;2.00;;;;;-147.14;100.00;58812.66;6217123;22;45312;-64
2023/01/08 15:51:20;;;;;;;;;2.33;1.00;;;;;-147.14;100.00;58812.66;6244451;22;46710;-64
2023/01/08 15:53:46;;;;;;;;;4.00;2.00;;;;;-147.14;100.00;58812.66;6244687;22;64669;-64
2023/01/08 15:56:11;;;;;;;;;4.00;2.33;;;;;-147.14;100.00;58812.66;6244669;22;60854;-64
2023/01/08 15:58:37;;;;;;;;;2.00;0.00;;;;;-147.14;100.00;58812.66;6246158;22;57046;-64
2023/01/08 16:01:02;;;;;;;;;3.33;2.00;;;;;-147.14;100.00;58812.66;6245115;22;46123;-64
2023/01/08 16:03:29;;;;;;;;;4.00;4.00;;;;;-147.14;100.00;58812.66;6244957;22;64251;-65
2023/01/08 16:05:55;;;;;;;;;1.00;1.00;;;;;-147.14;100.00;58812.66;6245486;22;45237;-65
2023/01/08 16:08:20;;;;;;;;;1.00;1.00;;;;;-147.14;100.00;58812.66;6245490;22;45242;-65
2023/01/08 16:10:51;;;;;;;;;4.00;2.00;;;;;-147.14;100.00;58812.66;6245254;22;67838;-65
2023/01/08 16:13:16;;;;;;;;;4.33;4.33;;;;;-147.14;100.00;58812.66;6244160;22;45226;-65
2023/01/08 16:15:42;;;;;;;;;4.33;2.67;;;;;-147.14;100.00;58812.66;6246050;22;45344;-64
2023/01/08 16:18:07;;;;;;;;;2.00;2.00;;;;;-147.14;100.00;58812.66;6245932;22;45470;-65
2023/01/08 16:20:32;;;;;;;;;3.67;2.00;;;;;-147.14;100.00;58812.66;6246019;22;46039;-65
2023/01/08 16:22:58;;;;;;;;;3.00;2.00;;;;;-147.14;100.00;58812.66;6244593;22;45312;-65
2023/01/08 16:25:23;;;;;;;;;4.67;2.00;;;;;-147.14;100.00;58812.66;6245954;22;45307;-64
2023/01/08 16:27:49;;;;;;;;;2.00;2.00;;;;;-147.14;100.00;58812.66;6245320;22;45272;-64
2023/01/08 16:30:15;;;;;;;;;4.67;3.00;;;;;-147.14;100.00;58812.66;6244928;22;45971;-65
2023/01/08 16:32:40;;;;;;;;;3.67;2.00;;;;;-147.14;100.00;58812.66;6245540;22;45281;-64
2023/01/08 16:35:06;;;;;;;;;2.00;1.67;;;;;-147.14;100.00;58812.66;6243591;22;45467;-65
2023/01/08 16:37:31;;;;;;;;;5.00;3.00;;;;;-147.14;100.00;58812.66;6216459;22;45816;-65
2023/01/08 16:39:57;;;;;;;;;5.67;3.00;;;;;-147.14;100.00;58812.66;6245069;22;45628;-65
2023/01/08 16:42:22;;;;;;;;;3.67;1.00;;;;;-147.14;100.00;58812.66;6242684;22;64837;-65
2023/01/08 16:44:48;;;;;;;;;1.33;1.33;;;;;-147.14;100.00;58812.66;6246683;22;45324;-65
2023/01/08 16:47:13;;;;;;;;;2.33;2.33;;;;;-147.14;100.00;58812.66;6242442;22;45370;-64
2023/01/08 16:49:38;;;;;;;;;2.67;2.67;;;;;-147.14;100.00;58812.66;6243679;22;45933;-61
2023/01/08 16:52:04;;;;;;;;;2.33;2.00;;;;;-147.14;100.00;58812.66;6244433;22;45606;-59
2023/01/08 16:54:30;;;;;;;;;5.00;2.00;;;;;-147.14;100.00;58812.66;6244988;22;59091;-60
2023/01/08 16:56:56;;;;;;;;;1.33;1.33;;;;;-147.14;100.00;58812.66;6217680;22;45246;-60
2023/01/08 16:59:23;;;;;;;;;2.00;2.00;;;;;-147.14;100.00;58812.66;6217779;22;53238;-60
2023/01/08 17:01:48;;;;;;;;;1.33;1.00;;;;;-147.14;100.00;58812.66;6245402;22;45344;-60
2023/01/08 17:04:14;;;;;;;;;6.33;2.67;;;;;-147.14;100.00;58812.66;6245937;22;45328;-60
2023/01/08 17:06:39;;;;;;;;;3.00;3.00;;;;;-147.14;100.00;58812.66;6246337;22;45275;-60
2023/01/08 17:09:05;;;;;;;;;4.00;2.00;;;;;-147.14;100.00;58812.66;6243239;22;64222;-60
2023/01/08 17:11:31;;;;;;;;;2.67;2.33;;;;;-147.14;100.00;58812.66;6243559;22;45391;-60
2023/01/08 17:13:57;;;;;;;;;4.00;2.33;;;;;-147.14;100.00;58812.66;6245183;22;45531;-59
2023/01/08 17:16:22;;;;;;;;;3.67;3.33;;;;;-147.14;100.00;58812.66;6247142;22;45426;-60
2023/01/08 17:18:47;;;;;;;;;2.67;2.00;;;;;-147.14;100.00;58812.66;6246079;22;45847;-61
2023/01/08 17:21:13;;;;;;;;;5.67;3.00;;;;;-147.14;100.00;58812.66;6245448;22;63763;-61
2023/01/08 17:23:39;;;;;;;;;3.00;1.33;;;;;-147.14;100.00;58812.66;6246829;22;45094;-61
2023/01/08 17:26:08;;;;;;;;;6.33;3.33;;;;;-147.14;100.00;58812.66;6244825;22;45569;-62
2023/01/08 17:28:33;;;;;;;;;3.67;2.00;;;;;-147.14;100.00;58812.66;6246628;22;45237;-61
2023/01/08 17:31:17;;;;;;;;;1.00;1.00;;;;;-147.14;100.00;58812.66;6245262;22;45241;-61
2023/01/08 17:33:44;;;;;;;;;6.00;2.33;;;;;-147.14;100.00;58812.66;6244865;22;45384;-61
2023/01/08 17:36:14;;;;;;;;;3.00;3.00;;;;;-147.14;100.00;58812.66;6245246;22;45305;-60
2023/01/08 17:38:41;;;;;;;;;3.00;2.00;;;;;-147.14;100.00;58812.66;6246287;22;45216;-60
2023/01/08 17:41:08;;;;;;;;;7.33;3.00;;;;;-147.14;100.00;58812.66;6243223;22;45293;-60
2023/01/08 17:43:37;;;;;;;;;3.33;3.33;;;;;-147.14;100.00;58812.66;6244378;22;45585;-60
2023/01/08 17:46:06;;;;;;;;;3.00;1.67;;;;;-147.14;100.00;58812.66;6245864;22;45217;-60
2023/01/08 17:48:32;;;;;;;;;5.33;3.00;;;;;-147.14;100.00;58812.66;6245426;22;46182;-60
2023/01/08 17:50:59;;;;;;;;;2.00;2.00;;;;;-147.14;100.00;58812.66;6245634;22;45336;-62
2023/01/08 17:53:25;;;;;;;;;2.33;2.33;;;;;-147.14;100.00;58812.66;6246326;22;45320;-59
2023/01/08 17:55:52;;;;;;;;;2.00;2.00;;;;;-147.14;100.00;58812.66;6246018;22;45300;-59
2023/01/08 17:58:17;;;;;;;;;3.33;3.00;;;;;-147.14;100.00;58812.66;6246204;22;46992;-60
2023/01/08 18:00:43;;;;;;;;;4.00;3.00;;;;;-147.14;100.00;58812.66;6243711;22;45288;-60
2023/01/08 18:03:08;;;;;;;;;5.00;3.00;;;;;-147.14;100.00;58812.66;6217763;22;60439;-60
2023/01/08 18:05:33;;;;;;;;;5.33;3.00;;;;;-147.14;100.00;58812.66;6246611;22;45291;-60
2023/01/08 18:07:59;;;;;;;;;4.67;4.67;;;;;-147.14;100.00;58812.66;6245803;22;46130;-60
2023/01/08 18:10:24;;;;;;;;;0.33;0.33;;;;;-147.14;100.00;58812.66;6245512;22;63401;-61
2023/01/08 18:12:49;;;;;;;;;3.33;3.33;;;;;-147.14;100.00;58812.66;6244546;22;59006;-63
2023/01/08 18:15:15;;;;;;;;;3.67;3.67;;;;;-147.14;100.00;58812.66;6244884;22;54300;-63
2023/01/08 18:17:40;;;;;;;;;1.00;1.00;;;;;-147.14;100.00;58812.66;6246422;22;46254;-63
2023/01/08 18:20:07;;;;;;;;;3.00;3.00;;;;;-147.14;100.00;58812.66;6244698;22;63230;-63
2023/01/08 18:22:33;;;;;;;;;6.67;4.00;;;;;-147.14;100.00;58812.66;6241689;22;45574;-66